createdAt,value
2018-09-28T00:01:36.049Z,3.73
2018-09-28T00:04:04.655Z,2.80
2018-09-28T00:06:33.220Z,4.13
2018-09-28T00:09:01.811Z,4.73
2018-09-28T00:11:30.380Z,4.23
2018-09-28T00:13:58.972Z,3.60
2018-09-28T00:16:27.525Z,3.33
2018-09-28T00:18:56.116Z,3.47
2018-09-28T00:21:24.697Z,4.90
2018-09-28T00:23:53.284Z,7.87
2018-09-28T00:26:21.857Z,5.53
2018-09-28T00:28:50.448Z,3.70
2018-09-28T00:31:19.067Z,5.90
2018-09-28T00:33:47.653Z,7.20
2018-09-28T00:36:16.217Z,5.47
2018-09-28T00:38:44.830Z,4.30
2018-09-28T00:41:13.428Z,7.63
2018-09-28T00:43:42.026Z,9.77
2018-09-28T00:46:10.592Z,5.00
2018-09-28T00:48:39.190Z,6.30
2018-09-28T00:51:07.774Z,7.60
2018-09-28T00:53:36.346Z,4.70
2018-09-28T00:56:04.951Z,6.50
2018-09-28T00:58:33.529Z,4.80
2018-09-28T01:01:02.118Z,5.60
2018-09-28T01:03:30.676Z,5.47
2018-09-28T01:05:59.270Z,5.37
2018-09-28T01:08:28.127Z,5.23
2018-09-28T01:10:56.732Z,4.40
2018-09-28T01:13:25.318Z,6.73
2018-09-28T01:15:53.950Z,4.20
2018-09-28T01:18:22.517Z,3.70
2018-09-28T01:20:51.112Z,3.63
2018-09-28T01:23:19.757Z,4.83
2018-09-28T01:25:48.386Z,3.90
2018-09-28T01:28:16.976Z,4.47
2018-09-28T01:30:45.608Z,4.00
2018-09-28T01:33:14.171Z,3.63
2018-09-28T01:35:42.807Z,3.60
2018-09-28T01:38:11.397Z,3.80
2018-09-28T01:40:40.019Z,3.60
2018-09-28T01:43:08.637Z,4.10
2018-09-28T01:45:37.544Z,4.23
2018-09-28T01:48:06.323Z,3.30
2018-09-28T01:50:34.905Z,4.00
2018-09-28T01:53:03.505Z,4.97
2018-09-28T01:55:32.094Z,11.10
2018-09-28T01:58:00.895Z,7.00
2018-09-28T02:00:29.493Z,6.10
2018-09-28T02:02:58.058Z,6.53
2018-09-28T02:05:26.658Z,8.10
2018-09-28T02:07:55.232Z,5.20
2018-09-28T02:10:23.836Z,4.70
2018-09-28T02:12:52.704Z,4.90
2018-09-28T02:15:21.367Z,6.30
2018-09-28T02:17:49.970Z,4.13
2018-09-28T02:20:18.621Z,3.47
2018-09-28T02:22:47.505Z,3.97
2018-09-28T02:25:16.077Z,3.70
2018-09-28T02:27:44.676Z,3.83
2018-09-28T02:30:13.294Z,3.40
2018-09-28T02:32:41.875Z,3.40
2018-09-28T02:35:10.452Z,3.93
2018-09-28T02:37:39.185Z,3.77
2018-09-28T02:40:08.265Z,3.93
2018-09-28T02:42:36.843Z,3.93
2018-09-28T02:45:05.461Z,3.90
2018-09-28T02:47:34.075Z,4.50
2018-09-28T02:50:02.668Z,4.00
2018-09-28T02:52:31.268Z,3.83
2018-09-28T02:54:59.832Z,4.50
2018-09-28T02:57:28.418Z,4.10
2018-09-28T02:59:56.992Z,4.00
2018-09-28T03:02:25.582Z,4.10
2018-09-28T03:04:54.158Z,3.07
2018-09-28T03:07:22.740Z,3.50
2018-09-28T03:09:51.305Z,4.87
2018-09-28T03:12:19.917Z,14.20
2018-09-28T03:14:48.509Z,14.40
2018-09-28T03:17:17.127Z,18.10
2018-09-28T03:19:45.709Z,41.17
2018-09-28T03:22:14.713Z,11.40
2018-09-28T03:24:43.308Z,11.10
2018-09-28T03:27:11.915Z,10.13
2018-09-28T03:29:40.481Z,4.90
2018-09-28T03:32:09.281Z,6.83
2018-09-28T03:34:37.858Z,6.70
2018-09-28T03:37:06.469Z,7.27
2018-09-28T03:39:35.038Z,7.57
2018-09-28T03:42:03.670Z,8.70
2018-09-28T03:44:32.232Z,7.93
2018-09-28T03:47:01.176Z,5.17
2018-09-28T03:49:29.740Z,4.40
2018-09-28T03:51:59.213Z,4.50
2018-09-28T03:54:27.804Z,5.30
2018-09-28T03:56:56.416Z,4.43
2018-09-28T03:59:24.985Z,5.10
2018-09-28T04:01:53.584Z,4.00
2018-09-28T04:04:22.153Z,4.10
2018-09-28T04:06:50.724Z,3.83
2018-09-28T04:09:19.337Z,4.27
2018-09-28T04:11:47.920Z,4.60
2018-09-28T04:14:16.504Z,4.53
2018-09-28T04:16:45.637Z,4.53
2018-09-28T04:19:14.296Z,3.80
2018-09-28T04:21:47.377Z,3.77
2018-09-28T04:24:15.924Z,5.40
2018-09-28T04:26:45.096Z,4.40
2018-09-28T04:29:13.688Z,5.10
2018-09-28T04:31:42.260Z,4.90
2018-09-28T04:34:12.709Z,4.50
2018-09-28T04:36:41.351Z,4.40
2018-09-28T04:39:09.945Z,4.43
2018-09-28T04:41:38.536Z,3.90
2018-09-28T04:44:07.129Z,4.43
2018-09-28T04:46:35.692Z,4.87
2018-09-28T04:49:04.439Z,4.13
2018-09-28T04:51:33.029Z,4.50
2018-09-28T04:54:01.707Z,4.20
2018-09-28T04:56:30.749Z,4.70
2018-09-28T04:58:59.708Z,4.90
2018-09-28T05:01:28.272Z,4.40
2018-09-28T05:03:56.875Z,3.90
2018-09-28T05:06:25.478Z,3.97
2018-09-28T05:08:54.066Z,4.60
2018-09-28T05:11:22.637Z,4.33
2018-09-28T05:13:51.221Z,4.00
2018-09-28T05:16:19.802Z,4.43
2018-09-28T05:18:48.388Z,4.93
2018-09-28T05:21:16.957Z,5.90
2018-09-28T05:23:45.589Z,9.10
2018-09-28T05:26:14.186Z,18.50
2018-09-28T05:28:43.408Z,9.40
2018-09-28T05:31:12.031Z,6.77
2018-09-28T05:33:40.595Z,9.20
2018-09-28T05:36:09.158Z,6.73
2018-09-28T05:38:37.730Z,7.80
2018-09-28T05:41:06.861Z,5.43
2018-09-28T05:43:35.455Z,6.70
2018-09-28T05:46:04.134Z,5.93
2018-09-28T05:48:32.700Z,6.10
2018-09-28T05:51:01.297Z,7.27
2018-09-28T05:53:29.939Z,6.80
2018-09-28T05:55:58.529Z,6.87
2018-09-28T05:58:32.509Z,6.37
2018-09-28T06:01:06.395Z,6.90
2018-09-28T06:03:35.029Z,6.80
2018-09-28T06:06:04.413Z,6.70
2018-09-28T06:08:33.001Z,4.87
2018-09-28T06:11:01.593Z,5.27
2018-09-28T06:13:30.196Z,8.37
2018-09-28T06:15:58.797Z,13.83
2018-09-28T06:18:27.407Z,9.30
2018-09-28T06:20:56.050Z,10.40
2018-09-28T06:23:24.616Z,10.30
2018-09-28T06:25:53.270Z,11.03
2018-09-28T06:28:21.833Z,10.10
2018-09-28T06:30:50.424Z,11.17
2018-09-28T06:33:19.075Z,8.43
2018-09-28T06:35:47.772Z,7.53
2018-09-28T06:38:16.323Z,6.30
2018-09-28T06:40:45.124Z,6.03
2018-09-28T06:43:13.984Z,5.93
2018-09-28T06:45:45.868Z,5.13
2018-09-28T06:48:14.591Z,6.03
2018-09-28T06:50:43.805Z,4.03
2018-09-28T06:53:12.457Z,4.60
2018-09-28T06:55:41.076Z,4.03
2018-09-28T06:58:09.680Z,4.30
2018-09-28T07:00:38.292Z,3.80
2018-09-28T07:03:06.877Z,7.73
2018-09-28T07:05:35.471Z,6.00
2018-09-28T07:08:04.065Z,4.23
2018-09-28T07:10:32.686Z,4.83
2018-09-28T07:13:01.248Z,5.50
2018-09-28T07:15:29.858Z,4.97
2018-09-28T07:17:58.485Z,5.03
2018-09-28T07:20:27.202Z,7.40
2018-09-28T07:22:55.775Z,5.23
2018-09-28T07:25:24.377Z,3.97
2018-09-28T07:27:53.204Z,3.80
2018-09-28T07:30:21.804Z,3.70
2018-09-28T07:32:50.389Z,3.80
2018-09-28T07:35:18.959Z,3.63
2018-09-28T07:37:47.831Z,4.00
2018-09-28T07:40:16.541Z,4.00
2018-09-28T07:42:45.154Z,3.90
2018-09-28T07:45:14.075Z,4.60
2018-09-28T07:47:42.688Z,3.80
2018-09-28T07:50:12.025Z,4.17
2018-09-28T07:52:40.626Z,4.10
2018-09-28T07:55:09.913Z,3.87
2018-09-28T07:57:38.504Z,3.63
2018-09-28T08:00:07.163Z,4.23
2018-09-28T08:02:36.080Z,3.80
2018-09-28T08:05:04.809Z,4.47
2018-09-28T08:07:34.397Z,4.93
2018-09-28T08:10:02.999Z,4.70
2018-09-28T08:12:31.588Z,4.67
2018-09-28T08:15:00.149Z,3.50
2018-09-28T08:17:28.909Z,4.50
2018-09-28T08:19:57.548Z,4.33
2018-09-28T08:22:26.147Z,4.53
2018-09-28T08:24:54.712Z,4.20
2018-09-28T08:27:23.312Z,4.10
2018-09-28T08:29:51.953Z,4.23
2018-09-28T08:32:20.551Z,4.33
2018-09-28T08:34:49.123Z,4.27
2018-09-28T08:37:17.725Z,4.97
2018-09-28T08:39:46.314Z,4.27
2018-09-28T08:42:14.929Z,4.37
2018-09-28T08:44:43.511Z,4.73
2018-09-28T08:47:12.118Z,3.90
2018-09-28T08:49:40.709Z,4.43
2018-09-28T08:52:09.304Z,5.23
2018-09-28T08:54:38.317Z,4.13
2018-09-28T08:57:06.924Z,4.10
2018-09-28T08:59:35.497Z,4.03
2018-09-28T09:02:04.268Z,4.63
2018-09-28T09:04:33.157Z,4.40
2018-09-28T09:07:01.785Z,5.17
2018-09-28T09:09:30.361Z,4.50
2018-09-28T09:11:59.578Z,4.30
2018-09-28T09:14:28.152Z,5.20
2018-09-28T09:16:56.805Z,4.00
2018-09-28T09:19:25.870Z,3.33
2018-09-28T09:21:54.455Z,4.60
2018-09-28T09:24:23.041Z,4.70
2018-09-28T09:26:51.639Z,4.60
2018-09-28T09:29:20.232Z,4.67
2018-09-28T09:31:48.800Z,5.30
2018-09-28T09:34:17.405Z,4.13
2018-09-28T09:36:45.969Z,4.20
2018-09-28T09:39:14.565Z,3.90
2018-09-28T09:41:43.165Z,4.87
2018-09-28T09:44:12.338Z,4.20
2018-09-28T09:46:40.900Z,4.30
2018-09-28T09:49:09.486Z,4.43
2018-09-28T09:51:38.139Z,4.47
2018-09-28T09:54:06.805Z,4.50
2018-09-28T09:56:35.410Z,5.30
2018-09-28T09:59:04.049Z,4.43
2018-09-28T10:01:38.126Z,4.00
2018-09-28T10:04:07.776Z,4.63
2018-09-28T10:06:36.368Z,4.30
2018-09-28T10:09:12.860Z,4.30
2018-09-28T10:11:41.803Z,4.63
2018-09-28T10:14:10.737Z,3.70
2018-09-28T10:16:39.409Z,3.67
2018-09-28T10:19:08.424Z,4.20
2018-09-28T10:21:37.269Z,4.80
2018-09-28T10:24:05.892Z,4.30
2018-09-28T10:26:34.465Z,3.83
2018-09-28T10:29:03.128Z,4.13
2018-09-28T10:31:31.711Z,3.70
2018-09-28T10:34:00.312Z,4.30
2018-09-28T10:36:29.157Z,3.77
2018-09-28T10:38:58.154Z,3.60
2018-09-28T10:41:26.754Z,3.30
2018-09-28T10:43:55.366Z,4.23
2018-09-28T10:46:23.966Z,3.67
2018-09-28T10:48:52.732Z,3.53
2018-09-28T10:51:21.601Z,2.57
2018-09-28T10:53:50.275Z,3.47
2018-09-28T10:56:18.858Z,3.13
2018-09-28T10:58:47.528Z,3.83
2018-09-28T11:01:16.132Z,3.30
2018-09-28T11:03:44.767Z,2.93
2018-09-28T11:06:13.307Z,3.40
2018-09-28T11:08:41.931Z,3.60
2018-09-28T11:11:10.488Z,3.90
2018-09-28T11:13:39.181Z,3.67
2018-09-28T11:16:07.847Z,4.60
2018-09-28T11:18:36.590Z,3.33
2018-09-28T11:21:05.188Z,4.30
2018-09-28T11:23:33.772Z,4.00
2018-09-28T11:26:02.388Z,5.17
2018-09-28T11:28:30.978Z,3.87
2018-09-28T11:30:59.580Z,4.80
2018-09-28T11:33:28.282Z,4.70
2018-09-28T11:35:56.888Z,5.07
2018-09-28T11:38:25.453Z,5.90
2018-09-28T11:40:54.101Z,5.53
2018-09-28T11:43:23.125Z,3.97
2018-09-28T11:45:51.779Z,3.90
2018-09-28T11:48:20.421Z,4.20
2018-09-28T11:50:49.016Z,6.40
2018-09-28T11:53:17.669Z,6.30
2018-09-28T11:55:46.292Z,6.50
2018-09-28T11:58:14.886Z,6.00
2018-09-28T12:00:43.608Z,5.50
2018-09-28T12:03:12.292Z,6.03
2018-09-28T12:05:41.317Z,5.83
2018-09-28T12:08:09.912Z,7.43
2018-09-28T12:10:38.512Z,6.57
2018-09-28T12:13:07.113Z,6.60
2018-09-28T12:15:35.729Z,8.17
2018-09-28T12:18:04.316Z,7.97
2018-09-28T12:20:32.917Z,6.80
2018-09-28T12:23:01.518Z,6.60
2018-09-28T12:25:30.119Z,8.17
2018-09-28T12:27:58.709Z,7.97
2018-09-28T12:30:27.432Z,8.00
2018-09-28T12:32:55.943Z,6.77
2018-09-28T12:35:25.072Z,6.70
2018-09-28T12:37:53.653Z,6.80
2018-09-28T12:40:22.297Z,6.63
2018-09-28T12:42:50.923Z,7.70
2018-09-28T12:45:19.524Z,7.00
2018-09-28T12:47:48.128Z,7.20
2018-09-28T12:50:16.763Z,7.67
2018-09-28T12:52:45.717Z,6.73
2018-09-28T12:55:14.347Z,7.83
2018-09-28T12:57:42.944Z,7.07
2018-09-28T13:00:11.594Z,8.20
2018-09-28T13:02:41.252Z,7.67
2018-09-28T13:05:09.825Z,7.63
2018-09-28T13:07:38.637Z,8.57
2018-09-28T13:10:07.409Z,7.40
2018-09-28T13:12:36.072Z,7.03
2018-09-28T13:15:05.230Z,6.73
2018-09-28T13:17:33.744Z,6.73
2018-09-28T13:20:02.315Z,6.83
2018-09-28T13:22:30.949Z,5.73
2018-09-28T13:24:59.518Z,6.47
2018-09-28T13:27:28.123Z,7.33
2018-09-28T13:29:56.745Z,6.80
2018-09-28T13:32:25.401Z,7.63
2018-09-28T13:34:54.033Z,6.80
2018-09-28T13:37:22.640Z,7.57
2018-09-28T13:39:51.208Z,6.70
2018-09-28T13:42:19.874Z,7.10
2018-09-28T13:44:48.472Z,8.20
2018-09-28T13:47:17.097Z,6.63
2018-09-28T13:49:45.665Z,7.47
2018-09-28T13:52:14.291Z,7.27
2018-09-28T13:54:42.929Z,7.50
2018-09-28T13:57:11.611Z,8.50
2018-09-28T13:59:40.414Z,9.30
2018-09-28T14:02:09.094Z,9.00
2018-09-28T14:04:37.659Z,8.70
2018-09-28T14:07:06.538Z,7.57
2018-09-28T14:09:35.013Z,8.30
2018-09-28T14:12:03.636Z,9.00
2018-09-28T14:14:32.307Z,9.87
2018-09-28T14:17:01.031Z,8.63
2018-09-28T14:19:29.606Z,10.20
2018-09-28T14:21:58.195Z,8.10
2018-09-28T14:24:26.797Z,8.83
2018-09-28T14:26:55.425Z,9.30
2018-09-28T14:29:23.996Z,10.53
2018-09-28T14:31:52.596Z,10.67
2018-09-28T14:34:21.255Z,9.60
2018-09-28T14:36:49.836Z,9.37
2018-09-28T14:39:18.417Z,10.40
2018-09-28T14:41:47.508Z,11.67
2018-09-28T14:44:16.090Z,9.63
2018-09-28T14:46:44.799Z,9.87
2018-09-28T14:49:13.317Z,9.77
2018-09-28T14:51:41.939Z,7.70
2018-09-28T14:54:10.621Z,10.07
2018-09-28T14:56:39.220Z,11.63
2018-09-28T14:59:07.828Z,10.60
2018-09-28T15:01:36.405Z,10.77
2018-09-28T15:04:05.008Z,13.63
2018-09-28T15:06:33.579Z,15.20
2018-09-28T15:09:02.264Z,14.43
2018-09-28T15:11:30.855Z,14.67
2018-09-28T15:13:59.480Z,15.87
2018-09-28T15:16:28.111Z,18.80
2018-09-28T15:18:56.693Z,17.70
2018-09-28T15:21:25.273Z,15.77
2018-09-28T15:23:54.049Z,17.10
2018-09-28T15:26:22.581Z,17.30
2018-09-28T15:28:51.197Z,18.63
2018-09-28T15:31:19.765Z,18.70
2018-09-28T15:33:48.380Z,19.20
2018-09-28T15:36:16.969Z,19.17
2018-09-28T15:38:45.581Z,18.87
2018-09-28T15:41:14.193Z,16.20
2018-09-28T15:43:42.864Z,16.20
2018-09-28T15:46:11.452Z,18.67
2018-09-28T15:48:40.083Z,16.87
2018-09-28T15:51:08.685Z,16.43
2018-09-28T15:53:37.310Z,17.50
2018-09-28T15:56:05.912Z,15.47
2018-09-28T15:58:34.529Z,15.07
2018-09-28T16:01:03.117Z,17.40
2018-09-28T16:03:31.715Z,14.67
2018-09-28T16:06:00.317Z,14.40
2018-09-28T16:08:30.581Z,16.23
2018-09-28T16:10:59.439Z,15.00
2018-09-28T16:13:28.041Z,13.90
2018-09-28T16:15:56.628Z,13.87
2018-09-28T16:18:25.242Z,13.20
2018-09-28T16:20:53.825Z,10.20
2018-09-28T16:23:22.424Z,11.40
2018-09-28T16:25:51.033Z,12.00
2018-09-28T16:28:19.637Z,11.07
2018-09-28T16:30:48.225Z,10.30
2018-09-28T16:33:16.797Z,10.80
2018-09-28T16:35:45.484Z,10.30
2018-09-28T16:38:14.020Z,10.73
2018-09-28T16:40:42.941Z,7.50
2018-09-28T16:43:11.554Z,9.80
2018-09-28T16:45:40.152Z,8.50
2018-09-28T16:48:08.729Z,10.23
2018-09-28T16:50:37.505Z,8.77
2018-09-28T16:53:06.084Z,7.33
2018-09-28T16:55:34.801Z,7.30
2018-09-28T16:58:03.389Z,9.20
2018-09-28T17:00:31.989Z,6.97
2018-09-28T17:03:00.591Z,7.00
2018-09-28T17:05:29.201Z,8.30
2018-09-28T17:07:57.777Z,6.47
2018-09-28T17:10:26.828Z,7.13
2018-09-28T17:12:55.409Z,6.23
2018-09-28T17:15:24.012Z,6.33
2018-09-28T17:17:52.897Z,6.23
2018-09-28T17:20:21.588Z,6.20
2018-09-28T17:22:50.154Z,5.00
2018-09-28T17:25:18.802Z,6.13
2018-09-28T17:27:47.648Z,5.73
2018-09-28T17:30:18.064Z,5.17
2018-09-28T17:32:46.686Z,6.07
2018-09-28T17:35:15.884Z,4.70
2018-09-28T17:37:44.489Z,4.83
2018-09-28T17:40:13.141Z,5.40
2018-09-28T17:42:41.715Z,5.77
2018-09-28T17:45:10.353Z,7.23
2018-09-28T17:47:38.933Z,8.20
2018-09-28T17:50:07.601Z,8.37
2018-09-28T17:52:36.199Z,6.53
2018-09-28T17:55:04.940Z,9.00
2018-09-28T17:57:33.512Z,7.00
2018-09-28T18:00:02.146Z,7.83
2018-09-28T18:02:30.724Z,8.60
2018-09-28T18:04:59.333Z,7.33
2018-09-28T18:07:28.150Z,7.33
2018-09-28T18:09:56.818Z,8.40
2018-09-28T18:12:25.410Z,5.90
2018-09-28T18:14:54.030Z,6.97
2018-09-28T18:17:22.609Z,7.13
2018-09-28T18:19:51.249Z,7.00
2018-09-28T18:22:19.889Z,7.03
2018-09-28T18:24:48.485Z,6.77
2018-09-28T18:27:17.505Z,6.70
2018-09-28T18:29:47.538Z,7.20
2018-09-28T18:32:16.450Z,6.93
2018-09-28T18:34:45.080Z,5.17
2018-09-28T18:37:13.926Z,6.80
2018-09-28T18:39:42.580Z,6.53
2018-09-28T18:42:11.252Z,5.83
2018-09-28T18:44:39.886Z,6.03
2018-09-28T18:47:08.821Z,6.30
2018-09-28T18:49:39.253Z,6.17
2018-09-28T18:52:12.718Z,16.57
2018-09-28T18:54:41.993Z,7.30
2018-09-28T18:57:11.348Z,8.50
2018-09-28T18:59:39.978Z,6.70
2018-09-28T19:02:08.811Z,7.87
2018-09-28T19:04:38.020Z,7.47
2018-09-28T19:07:09.007Z,7.33
2018-09-28T19:09:37.617Z,7.20
2018-09-28T19:12:06.806Z,6.67
2018-09-28T19:14:36.433Z,6.70
2018-09-28T19:17:08.287Z,7.17
2018-09-28T19:19:37.241Z,7.30
2018-09-28T19:22:06.670Z,6.67
2018-09-28T19:24:35.511Z,5.93
2018-09-28T19:27:14.963Z,7.00
2018-09-28T19:29:44.681Z,7.47
2018-09-28T19:32:13.487Z,6.87
2018-09-28T19:34:42.078Z,6.17
2018-09-28T19:37:11.035Z,6.47
2018-09-28T19:39:39.621Z,7.03
2018-09-28T19:42:08.316Z,6.90
2018-09-28T19:44:36.917Z,6.20
2018-09-28T19:47:05.574Z,6.83
2018-09-28T19:49:34.181Z,7.37
2018-09-28T19:52:03.683Z,8.17
2018-09-28T19:54:33.350Z,7.20
2018-09-28T19:57:01.956Z,8.43
2018-09-28T19:59:30.535Z,8.50
2018-09-28T20:01:59.129Z,9.27
2018-09-28T20:04:27.717Z,9.90
2018-09-28T20:06:57.325Z,10.23
2018-09-28T20:09:25.913Z,10.47
2018-09-28T20:11:54.557Z,10.17
2018-09-28T20:14:23.144Z,10.70
2018-09-28T20:16:51.758Z,10.67
2018-09-28T20:19:20.421Z,10.50
2018-09-28T20:21:49.116Z,10.93
2018-09-28T20:24:17.671Z,11.50
2018-09-28T20:26:46.317Z,9.67
2018-09-28T20:29:14.909Z,10.97
2018-09-28T20:31:43.520Z,10.73
2018-09-28T20:34:12.214Z,11.13
2018-09-28T20:36:40.832Z,10.60
2018-09-28T20:39:12.511Z,11.43
2018-09-28T20:41:41.404Z,10.50
2018-09-28T20:44:10.084Z,10.20
2018-09-28T20:46:38.996Z,11.20
2018-09-28T20:49:08.249Z,10.80
2018-09-28T20:51:36.817Z,11.10
2018-09-28T20:54:05.428Z,10.43
2018-09-28T20:56:34.036Z,10.90
2018-09-28T20:59:02.702Z,10.70
2018-09-28T21:01:31.294Z,9.20
2018-09-28T21:03:59.915Z,11.30
2018-09-28T21:06:28.516Z,10.13
2018-09-28T21:08:57.151Z,10.17
2018-09-28T21:11:25.743Z,11.03
2018-09-28T21:13:54.332Z,9.83
2018-09-28T21:16:23.240Z,11.37
2018-09-28T21:18:51.841Z,9.73
2018-09-28T21:21:20.416Z,10.77
2018-09-28T21:23:49.019Z,11.60
2018-09-28T21:26:17.607Z,11.33
2018-09-28T21:28:46.270Z,9.53
2018-09-28T21:31:14.816Z,9.70
2018-09-28T21:33:43.425Z,9.70
2018-09-28T21:36:12.336Z,8.87
2018-09-28T21:38:40.941Z,9.77
2018-09-28T21:41:09.546Z,10.00
2018-09-28T21:43:38.164Z,10.10
2018-09-28T21:46:07.115Z,9.43
2018-09-28T21:48:35.721Z,8.33
2018-09-28T21:51:04.310Z,10.90
2018-09-28T21:53:32.934Z,9.63
2018-09-28T21:56:01.539Z,9.57
2018-09-28T21:58:30.136Z,8.80
2018-09-28T22:00:58.710Z,9.43
2018-09-28T22:03:27.600Z,9.17
2018-09-28T22:05:56.245Z,8.87
2018-09-28T22:08:24.845Z,8.90
2018-09-28T22:10:53.448Z,7.60
2018-09-28T22:13:22.156Z,8.90
2018-09-28T22:15:50.737Z,7.20
2018-09-28T22:18:19.351Z,7.40
2018-09-28T22:20:47.924Z,5.70
2018-09-28T22:23:16.528Z,6.47
2018-09-28T22:25:45.116Z,5.63
2018-09-28T22:28:13.726Z,6.00
2018-09-28T22:30:42.291Z,6.00
2018-09-28T22:33:10.903Z,5.90
2018-09-28T22:35:39.490Z,5.50
2018-09-28T22:38:08.090Z,5.60
2018-09-28T22:40:36.701Z,4.87
2018-09-28T22:43:05.313Z,5.13
2018-09-28T22:45:33.971Z,5.67
2018-09-28T22:48:02.685Z,4.00
2018-09-28T22:50:31.308Z,5.33
2018-09-28T22:52:59.897Z,4.83
2018-09-28T22:55:28.501Z,4.73
2018-09-28T22:57:57.071Z,3.60
2018-09-28T23:00:25.661Z,4.60
2018-09-28T23:02:54.241Z,5.07
2018-09-28T23:05:22.846Z,3.73
2018-09-28T23:07:51.444Z,4.20
2018-09-28T23:10:20.064Z,3.80
2018-09-28T23:12:48.677Z,4.30
2018-09-28T23:15:17.281Z,3.37
2018-09-28T23:17:45.848Z,4.30
2018-09-28T23:20:14.486Z,3.70
2018-09-28T23:22:43.081Z,4.40
2018-09-28T23:25:11.686Z,3.23
2018-09-28T23:27:40.257Z,3.80
2018-09-28T23:30:08.936Z,3.17
2018-09-28T23:32:37.512Z,3.10
2018-09-28T23:35:06.169Z,3.50
2018-09-28T23:37:34.736Z,3.77
2018-09-28T23:40:03.388Z,3.20
2018-09-28T23:42:32.005Z,3.00
2018-09-28T23:45:00.606Z,3.93
2018-09-28T23:47:29.224Z,2.90
2018-09-28T23:49:57.809Z,3.83
2018-09-28T23:52:26.406Z,2.90
2018-09-28T23:54:55.053Z,3.40
2018-09-28T23:57:23.629Z,3.17
2018-09-28T23:59:52.229Z,3.30
